Time,TemperatureF,DewpointF,PressureIn,WindDirection,WindDirectionDegrees,WindSpeedMPH,WindSpeedGustMPH,Humidity,HourlyPrecipIn,Conditions,Clouds,dailyrainin,SoftwareType,DateUTC
2013-04-27 00:06:00,55.5,40.0,30.36,SSW,197,0.0,0.0,57,0.00,,,0.00,weatherlink.com 1.10,2013-04-27 04:06:00,
2013-04-27 00:21:00,56.6,40.0,30.37,SSE,154,0.0,0.0,55,0.00,,,0.00,weatherlink.com 1.10,2013-04-27 04:21:00,
2013-04-27 00:36:00,56.2,41.0,30.36,SSW,205,0.0,0.0,58,0.00,,,0.00,weatherlink.com 1.10,2013-04-27 04:36:00,
2013-04-27 00:51:00,56.3,41.0,30.36,SW,218,0.0,0.0,58,0.00,,,0.00,weatherlink.com 1.10,2013-04-27 04:51:00,
2013-04-27 01:06:00,56.2,41.0,30.36,SSW,203,0.0,0.0,58,0.00,,,0.00,weatherlink.com 1.10,2013-04-27 05:06:00,
2013-04-27 01:21:00,55.3,43.0,30.38,NNE,26,0.0,0.0,63,0.00,,,0.00,weatherlink.com 1.10,2013-04-27 05:21:00,
2013-04-27 01:36:00,54.7,44.0,30.38,South,188,0.0,0.0,67,0.00,,,0.00,weatherlink.com 1.10,2013-04-27 05:36:00,
2013-04-27 01:51:00,53.6,44.0,30.39,West,262,0.0,0.0,71,0.01,,,0.01,weatherlink.com 1.10,2013-04-27 05:51:00,
2013-04-27 02:06:00,52.6,45.0,30.39,NE,55,0.0,0.0,76,0.01,,,0.01,weatherlink.com 1.10,2013-04-27 06:06:00,
2013-04-27 02:21:00,51.0,47.0,30.39,ESE,104,0.0,0.0,87,0.03,,,0.03,weatherlink.com 1.10,2013-04-27 06:21:00,
2013-04-27 02:36:00,50.9,47.0,30.38,SE,128,0.0,0.0,85,0.04,,,0.04,weatherlink.com 1.10,2013-04-27 06:36:00,
2013-04-27 02:51:00,50.6,46.0,30.38,SE,125,0.0,0.0,85,0.05,,,0.06,weatherlink.com 1.10,2013-04-27 06:51:00,
2013-04-27 03:06:00,50.3,46.0,30.37,ESE,122,0.0,0.0,86,0.08,,,0.09,weatherlink.com 1.10,2013-04-27 07:06:00,
2013-04-27 03:22:00,50.0,46.0,30.35,ESE,121,0.0,0.0,87,0.09,,,0.12,weatherlink.com 1.10,2013-04-27 07:22:00,
2013-04-27 03:37:00,49.5,47.0,30.34,SE,143,0.0,0.0,90,0.10,,,0.14,weatherlink.com 1.10,2013-04-27 07:37:00,
2013-04-27 03:52:00,49.3,47.0,30.34,SSW,192,0.0,0.0,92,0.10,,,0.16,weatherlink.com 1.10,2013-04-27 07:52:00,
2013-04-27 04:07:00,49.0,47.0,30.33,SSW,192,0.0,0.0,93,0.08,,,0.17,weatherlink.com 1.10,2013-04-27 08:07:00,
2013-04-27 04:22:00,49.2,47.0,30.33,NNE,19,0.0,0.0,93,0.05,,,0.17,weatherlink.com 1.10,2013-04-27 08:22:00,
2013-04-27 04:37:00,49.0,48.0,30.33,NE,34,0.0,0.0,95,0.03,,,0.17,weatherlink.com 1.10,2013-04-27 08:37:00,
2013-04-27 04:52:00,48.7,47.0,30.32,NE,41,0.0,0.0,95,0.02,,,0.18,weatherlink.com 1.10,2013-04-27 08:52:00,
2013-04-27 05:07:00,49.0,48.0,30.32,NE,39,0.0,0.0,95,0.02,,,0.19,weatherlink.com 1.10,2013-04-27 09:07:00,
2013-04-27 05:22:00,48.9,47.0,30.33,SE,139,0.0,0.0,94,0.06,,,0.23,weatherlink.com 1.10,2013-04-27 09:22:00,
2013-04-27 05:37:00,48.8,47.0,30.33,SW,232,0.0,0.0,94,0.07,,,0.24,weatherlink.com 1.10,2013-04-27 09:37:00,
2013-04-27 05:52:00,48.7,47.0,30.33,SSW,198,0.0,0.0,95,0.06,,,0.24,weatherlink.com 1.10,2013-04-27 09:52:00,
2013-04-27 06:07:00,48.8,48.0,30.34,SSW,206,0.0,0.0,96,0.05,,,0.24,weatherlink.com 1.10,2013-04-27 10:07:00,
2013-04-27 06:22:00,48.7,48.0,30.33,SSE,167,0.0,0.0,96,0.03,,,0.26,weatherlink.com 1.10,2013-04-27 10:22:00,
2013-04-27 06:37:00,48.6,48.0,30.31,SE,135,0.0,0.0,96,0.04,,,0.28,weatherlink.com 1.10,2013-04-27 10:37:00,
2013-04-27 06:52:00,48.7,48.0,30.30,SE,136,0.0,0.0,96,0.05,,,0.29,weatherlink.com 1.10,2013-04-27 10:52:00,
2013-04-27 07:07:00,48.7,48.0,30.30,NE,42,0.0,0.0,96,0.05,,,0.29,weatherlink.com 1.10,2013-04-27 11:07:00,
2013-04-27 07:22:00,48.7,48.0,30.30,NNE,20,0.0,0.0,96,0.03,,,0.29,weatherlink.com 1.10,2013-04-27 11:22:00,
2013-04-27 07:37:00,48.8,48.0,30.31,SSW,195,0.0,0.0,97,0.01,,,0.29,weatherlink.com 1.10,2013-04-27 11:37:00,
2013-04-27 07:52:00,48.8,48.0,30.32,South,188,0.0,0.0,97,0.01,,,0.30,weatherlink.com 1.10,2013-04-27 11:52:00,
2013-04-27 08:07:00,49.0,48.0,30.32,South,181,0.0,0.0,97,0.01,,,0.30,weatherlink.com 1.10,2013-04-27 12:07:00,
2013-04-27 08:22:00,49.6,49.0,30.33,South,170,0.0,0.0,97,0.01,,,0.30,weatherlink.com 1.10,2013-04-27 12:22:00,
2013-04-27 08:37:00,50.0,49.0,30.31,SSE,163,0.0,0.0,96,0.01,,,0.30,weatherlink.com 1.10,2013-04-27 12:37:00,
2013-04-27 08:52:00,51.4,49.0,30.31,SSW,210,0.0,0.0,90,0.00,,,0.30,weatherlink.com 1.10,2013-04-27 12:52:00,
2013-04-27 09:07:00,51.8,48.0,30.31,SSW,205,0.0,0.0,88,0.00,,,0.30,weatherlink.com 1.10,2013-04-27 13:07:00,
2013-04-27 09:22:00,52.6,50.0,30.32,NNE,29,0.0,0.0,92,0.00,,,0.30,weatherlink.com 1.10,2013-04-27 13:22:00,
2013-04-27 09:37:00,52.6,49.0,30.32,SSE,159,0.0,0.0,86,0.00,,,0.30,weatherlink.com 1.10,2013-04-27 13:37:00,
2013-04-27 09:52:00,52.6,47.0,30.32,East,99,0.0,0.0,82,0.00,,,0.30,weatherlink.com 1.10,2013-04-27 13:52:00,
2013-04-27 10:07:00,52.9,47.0,30.32,SSW,192,0.0,0.0,81,0.00,,,0.30,weatherlink.com 1.10,2013-04-27 14:07:00,
2013-04-27 10:22:00,52.5,46.0,30.32,SSE,165,0.0,0.0,79,0.00,,,0.30,weatherlink.com 1.10,2013-04-27 14:22:00,
2013-04-27 10:37:00,52.7,46.0,30.32,North,9,0.0,1.0,79,0.00,,,0.30,weatherlink.com 1.10,2013-04-27 14:37:00,
2013-04-27 10:52:00,52.1,46.0,30.33,South,190,0.0,0.0,79,0.00,,,0.30,weatherlink.com 1.10,2013-04-27 14:52:00,
2013-04-27 11:07:00,51.1,45.0,30.33,WSW,253,0.0,0.0,81,0.01,,,0.31,weatherlink.com 1.10,2013-04-27 15:07:00,
2013-04-27 11:22:00,49.5,45.0,30.34,SE,142,0.0,0.0,85,0.05,,,0.35,weatherlink.com 1.10,2013-04-27 15:22:00,
2013-04-27 11:37:00,48.6,46.0,30.34,ENE,75,0.0,0.0,89,0.10,,,0.40,weatherlink.com 1.10,2013-04-27 15:37:00,
2013-04-27 11:52:00,48.5,45.0,30.34,ESE,111,0.0,0.0,87,0.11,,,0.41,weatherlink.com 1.10,2013-04-27 15:52:00,
2013-04-27 12:07:00,48.3,46.0,30.35,NE,51,0.0,0.0,90,0.10,,,0.41,weatherlink.com 1.10,2013-04-27 16:07:00,
2013-04-27 12:22:00,47.4,45.0,30.35,NNE,16,0.0,0.0,92,0.08,,,0.43,weatherlink.com 1.10,2013-04-27 16:22:00,
2013-04-27 12:37:00,47.1,46.0,30.35,North,357,0.0,0.0,94,0.05,,,0.45,weatherlink.com 1.10,2013-04-27 16:37:00,
2013-04-27 12:52:00,46.9,45.0,30.36,ENE,69,0.0,0.0,92,0.05,,,0.46,weatherlink.com 1.10,2013-04-27 16:52:00,
2013-04-27 13:07:00,47.0,45.0,30.35,NE,36,0.0,0.0,91,0.07,,,0.48,weatherlink.com 1.10,2013-04-27 17:07:00,
2013-04-27 13:22:00,47.0,45.0,30.33,ENE,62,0.0,0.0,92,0.05,,,0.48,weatherlink.com 1.10,2013-04-27 17:22:00,
2013-04-27 13:37:00,47.0,45.0,30.33,NNW,345,0.0,0.0,93,0.03,,,0.48,weatherlink.com 1.10,2013-04-27 17:37:00,
2013-04-27 13:52:00,47.6,45.0,30.32,ESE,117,0.0,0.0,89,0.02,,,0.48,weatherlink.com 1.10,2013-04-27 17:52:00,
2013-04-27 14:07:00,48.6,44.0,30.32,East,97,0.0,0.0,85,0.00,,,0.48,weatherlink.com 1.10,2013-04-27 18:07:00,
2013-04-27 14:22:00,49.5,45.0,30.31,ESE,110,0.0,0.0,83,0.00,,,0.48,weatherlink.com 1.10,2013-04-27 18:22:00,
2013-04-27 14:37:00,50.2,45.0,30.30,ENE,75,0.0,0.0,83,0.00,,,0.48,weatherlink.com 1.10,2013-04-27 18:37:00,
2013-04-27 14:52:00,51.4,44.0,30.30,SSE,148,0.0,0.0,76,0.00,,,0.48,weatherlink.com 1.10,2013-04-27 18:52:00,
2013-04-27 15:07:00,51.3,47.0,30.31,NE,39,0.0,0.0,84,0.00,,,0.48,weatherlink.com 1.10,2013-04-27 19:07:00,
2013-04-27 15:22:00,52.1,44.0,30.30,NE,40,0.0,0.0,74,0.00,,,0.48,weatherlink.com 1.10,2013-04-27 19:22:00,
2013-04-27 15:37:00,52.8,44.0,30.29,WNW,294,0.0,0.0,71,0.00,,,0.48,weatherlink.com 1.10,2013-04-27 19:37:00,
2013-04-27 15:52:00,52.3,45.0,30.29,ENE,58,0.0,0.0,76,0.00,,,0.48,weatherlink.com 1.10,2013-04-27 19:52:00,
2013-04-27 16:07:00,52.5,46.0,30.30,ESE,122,0.0,0.0,78,0.00,,,0.48,weatherlink.com 1.10,2013-04-27 20:07:00,
2013-04-27 16:22:00,53.0,43.0,30.29,SSE,161,0.0,0.0,70,0.00,,,0.48,weatherlink.com 1.10,2013-04-27 20:22:00,
2013-04-27 16:37:00,53.6,44.0,30.27,WSW,243,0.0,0.0,69,0.00,,,0.48,weatherlink.com 1.10,2013-04-27 20:37:00,
2013-04-27 16:52:00,53.7,44.0,30.27,SE,131,0.0,0.0,69,0.00,,,0.48,weatherlink.com 1.10,2013-04-27 20:52:00,
2013-04-27 17:07:00,53.3,44.0,30.27,SE,132,0.0,0.0,71,0.00,,,0.48,weatherlink.com 1.10,2013-04-27 21:07:00,
2013-04-27 17:23:00,53.4,44.0,30.27,ESE,110,0.0,0.0,70,0.00,,,0.48,weatherlink.com 1.10,2013-04-27 21:23:00,
2013-04-27 17:38:00,53.4,44.0,30.26,SSE,160,6.0,17.0,70,0.00,,,0.48,weatherlink.com 1.10,2013-04-27 21:38:00,
2013-04-27 17:53:00,53.2,44.0,30.26,South,172,6.0,15.0,70,0.00,,,0.48,weatherlink.com 1.10,2013-04-27 21:53:00,
2013-04-27 18:08:00,53.0,44.0,30.26,SE,125,5.0,12.0,72,0.00,,,0.48,weatherlink.com 1.10,2013-04-27 22:08:00,
2013-04-27 18:23:00,53.0,45.0,30.27,SW,226,3.0,12.0,73,0.00,,,0.48,weatherlink.com 1.10,2013-04-27 22:23:00,
2013-04-27 18:38:00,52.9,45.0,30.27,SE,135,0.0,9.0,74,0.00,,,0.48,weatherlink.com 1.10,2013-04-27 22:38:00,
2013-04-27 18:53:00,52.7,45.0,30.27,SE,143,0.0,14.0,76,0.00,,,0.48,weatherlink.com 1.10,2013-04-27 22:53:00,
2013-04-27 19:08:00,52.4,46.0,30.25,SSE,153,1.0,12.0,79,0.00,,,0.48,weatherlink.com 1.10,2013-04-27 23:08:00,
2013-04-27 19:23:00,52.3,47.0,30.24,WSW,240,5.0,16.0,81,0.00,,,0.48,weatherlink.com 1.10,2013-04-27 23:23:00,
2013-04-27 19:38:00,52.0,47.0,30.24,SSE,159,1.0,13.0,84,0.00,,,0.48,weatherlink.com 1.10,2013-04-27 23:38:00,
2013-04-27 19:53:00,52.1,47.0,30.24,SSW,200,2.0,10.0,83,0.00,,,0.48,weatherlink.com 1.10,2013-04-27 23:53:00,
2013-04-27 20:08:00,52.3,47.0,30.23,SSW,207,3.0,14.0,82,0.00,,,0.48,weatherlink.com 1.10,2013-04-28 00:08:00,
2013-04-27 20:23:00,52.2,47.0,30.23,SSE,156,12.0,12.0,83,0.00,,,0.48,weatherlink.com 1.10,2013-04-28 00:23:00,
2013-04-27 20:38:00,52.2,47.0,30.23,ESE,120,5.0,15.0,83,0.00,,,0.48,weatherlink.com 1.10,2013-04-28 00:38:00,
2013-04-27 20:53:00,52.5,48.0,30.23,SE,139,4.0,18.0,83,0.00,,,0.48,weatherlink.com 1.10,2013-04-28 00:53:00,
2013-04-27 21:08:00,52.5,47.0,30.23,ESE,122,7.0,16.0,82,0.00,,,0.48,weatherlink.com 1.10,2013-04-28 01:08:00,
2013-04-27 21:23:00,52.4,47.0,30.23,NNE,18,6.0,14.0,83,0.00,,,0.48,weatherlink.com 1.10,2013-04-28 01:23:00,
2013-04-27 21:38:00,52.5,48.0,30.23,NNW,334,2.0,15.0,83,0.00,,,0.48,weatherlink.com 1.10,2013-04-28 01:38:00,
2013-04-27 21:53:00,52.7,47.0,30.22,NNW,345,2.0,15.0,82,0.00,,,0.48,weatherlink.com 1.10,2013-04-28 01:53:00,
2013-04-27 22:08:00,53.0,47.0,30.23,South,190,0.0,12.0,81,0.00,,,0.48,weatherlink.com 1.10,2013-04-28 02:08:00,
2013-04-27 22:23:00,52.4,47.0,30.22,SW,232,3.0,16.0,83,0.01,,,0.49,weatherlink.com 1.10,2013-04-28 02:23:00,
2013-04-27 22:38:00,52.4,47.0,30.22,East,98,5.0,17.0,83,0.01,,,0.49,weatherlink.com 1.10,2013-04-28 02:38:00,
2013-04-27 22:53:00,51.2,48.0,30.21,SE,132,2.0,21.0,88,0.03,,,0.51,weatherlink.com 1.10,2013-04-28 02:53:00,
2013-04-27 23:08:00,51.3,48.0,30.21,SW,229,2.0,18.0,88,0.03,,,0.51,weatherlink.com 1.10,2013-04-28 03:08:00,
2013-04-27 23:23:00,51.4,48.0,30.23,SSW,207,8.0,16.0,88,0.02,,,0.51,weatherlink.com 1.10,2013-04-28 03:23:00,
2013-04-27 23:38:00,51.3,48.0,30.23,ESE,122,5.0,14.0,88,0.02,,,0.51,weatherlink.com 1.10,2013-04-28 03:38:00,
2013-04-27 23:53:00,51.2,48.0,30.22,East,86,7.0,22.0,87,0.00,,,0.51,weatherlink.com 1.10,2013-04-28 03:53:00,